createdAt,value
2023-04-01T00:08:57.279Z,10.10
2023-04-01T00:11:24.275Z,10.20
2023-04-01T00:18:50.833Z,10.10
2023-04-01T00:21:18.338Z,10.20
2023-04-01T00:26:13.273Z,10.20
2023-04-01T00:28:40.433Z,10.00
2023-04-01T00:31:08.660Z,10.00
2023-04-01T00:36:11.924Z,10.10
2023-04-01T00:38:39.333Z,10.10
2023-04-01T00:41:06.838Z,10.00
2023-04-01T00:43:34.368Z,10.10
2023-04-01T00:48:32.140Z,10.10
2023-04-01T00:51:10.359Z,10.20
2023-04-01T00:53:42.150Z,10.20
2023-04-01T00:56:16.428Z,10.10
2023-04-01T00:58:49.075Z,10.20
2023-04-01T01:01:16.449Z,10.20
2023-04-01T01:06:39.849Z,10.20
2023-04-01T01:09:34.656Z,10.10
2023-04-01T01:12:26.407Z,10.10
2023-04-01T01:15:12.421Z,10.10
2023-04-01T01:17:44.186Z,10.10
2023-04-01T01:23:13.343Z,10.10
2023-04-01T01:25:42.986Z,10.10
2023-04-01T01:28:39.227Z,10.10
2023-04-01T01:31:22.338Z,10.10
2023-04-01T01:33:57.247Z,10.10
2023-04-01T01:36:29.948Z,10.10
2023-04-01T01:38:57.734Z,10.10
2023-04-01T01:41:27.619Z,10.10
2023-04-01T01:43:57.277Z,10.20
2023-04-01T01:46:26.368Z,10.20
2023-04-01T01:48:54.033Z,10.00
2023-04-01T01:51:23.001Z,10.10
2023-04-01T01:56:22.620Z,10.10
2023-04-01T01:58:53.537Z,10.10
2023-04-01T02:01:28.779Z,10.00
2023-04-01T02:03:59.627Z,10.00
2023-04-01T02:06:31.354Z,10.00
2023-04-01T02:09:04.708Z,10.00
2023-04-01T02:11:46.945Z,10.00
2023-04-01T02:14:34.777Z,10.00
2023-04-01T02:17:08.194Z,9.90
2023-04-01T02:19:39.926Z,9.90
2023-04-01T02:22:14.966Z,10.00
2023-04-01T02:24:43.276Z,10.00
2023-04-01T02:27:11.450Z,10.00
2023-04-01T02:29:38.880Z,10.00
2023-04-01T02:32:09.353Z,10.00
2023-04-01T02:37:03.394Z,10.00
2023-04-01T03:16:17.542Z,10.00
2023-04-01T03:21:19.960Z,10.00
2023-04-01T03:33:41.916Z,10.00
2023-04-01T03:38:36.762Z,9.50
2023-04-01T03:43:33.126Z,9.90
2023-04-01T03:45:59.933Z,9.90
2023-04-01T03:58:18.657Z,9.70
2023-04-01T04:05:48.082Z,9.90
2023-04-01T04:27:59.719Z,9.90
2023-04-01T04:32:53.598Z,9.80
2023-04-01T04:47:46.040Z,10.00
2023-04-01T04:55:08.508Z,9.90
2023-04-01T05:05:15.286Z,9.70
2023-04-01T05:15:07.262Z,9.90
2023-04-01T05:29:52.716Z,10.00
2023-04-01T05:37:35.816Z,10.20
2023-04-01T05:40:05.035Z,10.10
2023-04-01T05:50:36.949Z,10.20
2023-04-01T06:03:00.458Z,10.10
2023-04-01T06:05:36.866Z,10.30
2023-04-01T06:08:11.060Z,10.20
2023-04-01T06:10:58.162Z,10.30
2023-04-01T06:13:41.696Z,10.30
2023-04-01T06:16:21.239Z,10.30
2023-04-01T06:19:02.539Z,10.20
2023-04-01T06:22:09.812Z,10.30
2023-04-01T06:25:15.791Z,10.20
2023-04-01T06:27:51.592Z,10.20
2023-04-01T06:30:37.051Z,10.20
2023-04-01T06:33:31.164Z,10.20
2023-04-01T06:36:16.050Z,10.20
2023-04-01T06:39:09.568Z,10.20
2023-04-01T06:42:37.128Z,10.30
2023-04-01T06:45:46.654Z,10.30
2023-04-01T06:48:56.001Z,10.30
2023-04-01T06:51:53.412Z,10.30
2023-04-01T06:54:47.867Z,10.30
2023-04-01T06:57:42.738Z,10.30
2023-04-01T07:00:15.602Z,10.30
2023-04-01T07:03:08.247Z,10.30
2023-04-01T07:08:12.758Z,10.40
2023-04-01T07:10:54.500Z,10.40
2023-04-01T07:16:51.181Z,10.50
2023-04-01T07:19:26.617Z,10.50
2023-04-01T07:22:22.526Z,10.50
2023-04-01T07:25:17.223Z,10.50
2023-04-01T07:27:48.726Z,10.40
2023-04-01T07:30:20.758Z,10.60
2023-04-01T07:33:09.990Z,10.60
2023-04-01T07:36:14.997Z,10.60
2023-04-01T07:39:05.966Z,10.70
2023-04-01T07:42:19.744Z,10.70
2023-04-01T07:45:00.275Z,10.80
2023-04-01T07:47:45.628Z,10.70
2023-04-01T07:50:32.285Z,10.70
2023-04-01T07:53:06.923Z,10.70
2023-04-01T07:55:52.083Z,10.80
2023-04-01T07:58:35.619Z,10.80
2023-04-01T08:01:32.152Z,10.80
2023-04-01T08:04:39.095Z,10.90
2023-04-01T08:07:25.736Z,10.80
2023-04-01T08:10:21.799Z,10.90
2023-04-01T08:13:30.905Z,10.90
2023-04-01T08:16:53.984Z,11.00
2023-04-01T08:19:32.763Z,10.90
2023-04-01T08:22:05.515Z,11.00
2023-04-01T08:24:47.497Z,10.90
2023-04-01T08:27:44.929Z,11.00
2023-04-01T08:30:22.751Z,11.10
2023-04-01T08:32:56.456Z,11.10
2023-04-01T08:35:33.774Z,11.10
2023-04-01T08:38:11.681Z,11.20
2023-04-01T08:41:04.119Z,11.10
2023-04-01T08:44:19.127Z,11.10
2023-04-01T08:47:10.480Z,11.20
2023-04-01T08:49:51.936Z,11.20
2023-04-01T08:52:50.857Z,11.10
2023-04-01T08:55:31.795Z,11.20
2023-04-01T08:58:26.679Z,11.00
2023-04-01T09:01:41.845Z,10.80
2023-04-01T09:04:40.883Z,10.80
2023-04-01T09:07:37.078Z,10.80
2023-04-01T09:10:41.458Z,10.90
2023-04-01T09:14:05.809Z,11.00
2023-04-01T09:17:09.993Z,11.10
2023-04-01T09:19:59.545Z,11.00
2023-04-01T09:23:02.254Z,11.00
2023-04-01T09:25:53.250Z,11.10
2023-04-01T09:28:28.804Z,11.10
2023-04-01T09:31:44.403Z,11.00
2023-04-01T09:35:06.444Z,10.90
2023-04-01T09:37:48.023Z,11.10
2023-04-01T09:40:35.149Z,11.20
2023-04-01T09:43:22.629Z,11.30
2023-04-01T09:46:20.113Z,11.40
2023-04-01T09:49:05.129Z,11.50
2023-04-01T09:51:55.592Z,11.50
2023-04-01T09:54:42.837Z,11.50
2023-04-01T10:00:10.777Z,11.60
2023-04-01T10:03:21.643Z,11.70
2023-04-01T10:06:19.724Z,11.70
2023-04-01T10:09:09.205Z,11.80
2023-04-01T10:11:54.017Z,11.70
2023-04-01T10:14:59.984Z,11.70
2023-04-01T10:17:56.589Z,11.70
2023-04-01T10:20:39.780Z,11.70
2023-04-01T10:23:16.176Z,11.80
2023-04-01T10:26:09.814Z,12.10
2023-04-01T10:28:57.310Z,11.80
2023-04-01T10:32:07.017Z,11.80
2023-04-01T10:34:55.731Z,12.00
2023-04-01T10:37:38.577Z,12.00
2023-04-01T10:40:40.052Z,12.10
2023-04-01T10:43:59.584Z,12.10
2023-04-01T10:46:47.854Z,12.20
2023-04-01T10:49:48.608Z,12.20
2023-04-01T10:52:42.757Z,12.20
2023-04-01T10:56:00.942Z,12.20
2023-04-01T10:58:49.251Z,12.00
2023-04-01T11:02:10.774Z,12.10
2023-04-01T11:05:27.125Z,12.20
2023-04-01T11:11:12.306Z,12.00
2023-04-01T11:14:09.364Z,10.90
2023-04-01T11:17:14.484Z,12.00
2023-04-01T11:20:18.988Z,12.10
2023-04-01T11:23:08.659Z,12.20
2023-04-01T11:25:58.473Z,12.20
2023-04-01T11:29:09.700Z,12.20
2023-04-01T11:31:39.689Z,12.10
2023-04-01T11:34:31.772Z,12.00
2023-04-01T11:37:19.235Z,12.10
2023-04-01T11:40:15.156Z,12.10
2023-04-01T11:43:38.351Z,12.10
2023-04-01T11:46:42.324Z,12.10
2023-04-01T11:49:26.640Z,12.20
2023-04-01T11:52:26.767Z,12.20
2023-04-01T11:57:47.207Z,12.20
2023-04-01T12:00:43.269Z,12.30
2023-04-01T12:03:39.207Z,12.30
2023-04-01T12:08:44.893Z,12.20
2023-04-01T12:11:35.985Z,12.30
2023-04-01T12:14:31.674Z,12.30
2023-04-01T12:19:30.166Z,12.30
2023-04-01T12:24:32.853Z,12.30
2023-04-01T12:27:28.931Z,12.30
2023-04-01T12:30:16.259Z,12.30
2023-04-01T12:33:16.833Z,12.10
2023-04-01T12:36:11.172Z,11.90
2023-04-01T12:39:34.228Z,11.90
2023-04-01T12:42:37.889Z,12.00
2023-04-01T12:45:16.850Z,12.10
2023-04-01T12:48:07.446Z,12.10
2023-04-01T12:51:10.288Z,12.20
2023-04-01T12:54:09.156Z,12.10
2023-04-01T12:57:07.409Z,12.20
2023-04-01T12:59:56.352Z,12.20
2023-04-01T13:02:47.079Z,12.20
2023-04-01T13:05:34.776Z,12.30
2023-04-01T13:08:11.487Z,12.40
2023-04-01T13:10:52.110Z,12.40
2023-04-01T13:14:30.794Z,12.30
2023-04-01T13:17:22.301Z,12.30
2023-04-01T13:20:06.380Z,12.30
2023-04-01T13:22:44.856Z,12.40
2023-04-01T13:25:52.500Z,12.50
2023-04-01T13:28:29.634Z,12.50
2023-04-01T13:30:59.259Z,12.40
2023-04-01T13:34:01.131Z,11.40
2023-04-01T13:36:52.275Z,12.40
2023-04-01T13:39:35.669Z,12.40
2023-04-01T13:42:20.612Z,16.20
2023-04-01T13:45:21.545Z,12.20
2023-04-01T13:47:51.367Z,12.10
2023-04-01T13:50:40.051Z,12.10
2023-04-01T13:53:43.193Z,12.20
2023-04-01T13:56:34.052Z,12.10
2023-04-01T13:59:33.585Z,12.30
2023-04-01T14:04:45.241Z,12.40
2023-04-01T14:07:22.885Z,12.50
2023-04-01T14:10:03.844Z,12.50
2023-04-01T14:12:49.036Z,12.50
2023-04-01T14:15:43.080Z,12.50
2023-04-01T14:20:41.766Z,12.50
2023-04-01T14:23:32.579Z,12.40
2023-04-01T14:26:17.550Z,12.30
2023-04-01T14:28:51.831Z,12.20
2023-04-01T14:31:35.422Z,12.20
2023-04-01T14:34:22.535Z,12.10
2023-04-01T14:37:13.802Z,12.10
2023-04-01T14:39:48.957Z,12.00
2023-04-01T14:42:32.140Z,12.00
2023-04-01T14:45:29.420Z,11.80
2023-04-01T14:48:23.700Z,12.00
2023-04-01T14:50:54.081Z,12.00
2023-04-01T14:53:23.870Z,12.00
2023-04-01T14:55:59.629Z,12.00
2023-04-01T14:58:43.533Z,12.10
2023-04-01T15:01:29.447Z,12.00
2023-04-01T15:04:25.752Z,11.80
2023-04-01T15:09:46.667Z,11.90
2023-04-01T15:12:30.457Z,11.90
2023-04-01T15:17:57.052Z,12.00
2023-04-01T15:20:44.998Z,12.00
2023-04-01T15:23:22.015Z,12.00
2023-04-01T15:26:25.904Z,12.00
2023-04-01T15:31:40.586Z,12.00
2023-04-01T15:34:39.435Z,12.20
2023-04-01T15:37:40.888Z,12.20
2023-04-01T15:40:41.356Z,12.30
2023-04-01T15:43:39.169Z,12.40
2023-04-01T15:46:24.684Z,12.40
2023-04-01T15:49:08.816Z,12.40
2023-04-01T15:51:54.136Z,12.40
2023-04-01T15:54:49.670Z,12.40
2023-04-01T15:57:24.876Z,12.40
2023-04-01T16:00:20.617Z,12.40
2023-04-01T16:03:16.931Z,12.30
2023-04-01T16:06:17.343Z,12.20
2023-04-01T16:09:05.501Z,12.00
2023-04-01T16:12:05.971Z,11.70
2023-04-01T16:19:42.844Z,11.50
2023-04-01T16:22:17.782Z,11.40
2023-04-01T16:24:56.942Z,11.50
2023-04-01T16:29:58.861Z,11.50
2023-04-01T16:32:45.659Z,9.80
2023-04-01T16:35:21.073Z,11.70
2023-04-01T16:37:53.023Z,11.70
2023-04-01T16:40:41.723Z,11.70
2023-04-01T16:45:45.036Z,11.80
2023-04-01T16:48:16.997Z,11.90
2023-04-01T16:51:00.297Z,11.90
2023-04-01T16:53:35.789Z,12.00
2023-04-01T16:58:41.847Z,12.00
2023-04-01T17:01:18.405Z,12.00
2023-04-01T17:03:47.356Z,11.90
2023-04-01T17:06:52.965Z,12.00
2023-04-01T17:09:31.905Z,12.00
2023-04-01T17:12:17.700Z,11.90
2023-04-01T17:15:13.063Z,11.80
2023-04-01T17:17:58.624Z,11.80
2023-04-01T17:20:28.243Z,11.80
2023-04-01T17:23:31.798Z,11.70
2023-04-01T17:26:28.632Z,11.60
2023-04-01T17:29:45.960Z,11.50
2023-04-01T17:32:27.462Z,11.40
2023-04-01T17:35:12.625Z,11.40
2023-04-01T17:37:56.210Z,11.40
2023-04-01T17:40:45.316Z,11.40
2023-04-01T17:43:20.546Z,11.30
2023-04-01T17:45:56.116Z,11.30
2023-04-01T17:48:45.592Z,11.20
2023-04-01T17:51:51.786Z,11.30
2023-04-01T17:57:22.910Z,11.20
2023-04-01T18:00:13.893Z,11.20
2023-04-01T18:02:52.446Z,11.10
2023-04-01T18:07:57.159Z,11.10
2023-04-01T18:10:41.097Z,11.00
2023-04-01T18:13:18.005Z,11.10
2023-04-01T18:16:03.852Z,11.10
2023-04-01T18:18:43.808Z,11.00
2023-04-01T18:23:52.076Z,10.90
2023-04-01T18:26:28.883Z,10.90
2023-04-01T18:29:00.015Z,10.90
2023-04-01T18:31:38.584Z,10.80
2023-04-01T18:34:32.339Z,10.80
2023-04-01T18:37:32.329Z,10.50
2023-04-01T18:40:25.084Z,10.50
2023-04-01T18:43:06.631Z,10.40
2023-04-01T18:45:38.441Z,10.30
2023-04-01T18:48:31.148Z,10.20
2023-04-01T18:51:10.768Z,10.20
2023-04-01T18:53:47.979Z,10.10
2023-04-01T18:56:29.392Z,10.10
2023-04-01T18:59:13.467Z,10.00
2023-04-01T19:02:04.757Z,10.00
2023-04-01T19:04:40.231Z,9.90
2023-04-01T19:07:47.304Z,9.80
2023-04-01T19:10:34.246Z,9.80
2023-04-01T19:13:39.598Z,9.80
2023-04-01T19:16:26.244Z,9.70
2023-04-01T19:19:25.492Z,9.60
2023-04-01T19:22:00.420Z,9.60
2023-04-01T19:24:44.035Z,9.50
2023-04-01T19:27:41.725Z,9.40
2023-04-01T19:30:33.633Z,9.40
2023-04-01T19:33:11.459Z,9.30
2023-04-01T19:36:13.600Z,9.10
2023-04-01T19:38:48.856Z,9.10
2023-04-01T19:41:41.759Z,9.20
2023-04-01T19:46:43.610Z,9.10
2023-04-01T19:49:34.808Z,9.10
2023-04-01T19:54:52.885Z,9.00
2023-04-01T19:57:25.729Z,9.00
2023-04-01T20:00:25.794Z,9.00
2023-04-01T20:03:05.781Z,9.00
2023-04-01T20:05:47.069Z,8.90
2023-04-01T20:08:38.287Z,8.80
2023-04-01T20:11:11.057Z,8.90
2023-04-01T20:14:05.744Z,8.80
2023-04-01T20:16:49.670Z,8.80
2023-04-01T20:19:26.669Z,8.80
2023-04-01T20:21:59.224Z,8.70
2023-04-01T20:24:42.440Z,8.60
2023-04-01T20:29:41.877Z,8.60
2023-04-01T20:32:27.630Z,8.60
2023-04-01T20:35:20.681Z,8.50
2023-04-01T20:38:10.382Z,8.40
2023-04-01T20:40:51.902Z,8.40
2023-04-01T20:43:37.643Z,8.40
2023-04-01T20:48:56.933Z,8.30
2023-04-01T20:51:39.510Z,8.30
2023-04-01T20:54:33.604Z,8.30
2023-04-01T20:57:06.241Z,8.20
2023-04-01T20:59:51.578Z,8.80
2023-04-01T21:02:45.961Z,8.20
2023-04-01T21:07:50.747Z,8.00
2023-04-01T21:10:46.485Z,7.90
2023-04-01T21:13:33.774Z,7.90
2023-04-01T21:16:15.041Z,7.80
2023-04-01T21:19:18.278Z,7.90
2023-04-01T21:22:23.216Z,7.80
2023-04-01T21:25:20.416Z,7.80
2023-04-01T21:27:56.363Z,7.70
2023-04-01T21:33:02.285Z,7.70
2023-04-01T21:35:37.490Z,7.70
2023-04-01T21:40:45.770Z,7.60
2023-04-01T21:43:30.756Z,7.60
2023-04-01T21:46:35.322Z,7.50
2023-04-01T21:49:50.849Z,7.40
2023-04-01T21:52:52.962Z,7.50
2023-04-01T21:55:56.330Z,7.40
2023-04-01T22:00:57.780Z,7.40
2023-04-01T22:03:58.598Z,7.40
2023-04-01T22:06:40.477Z,7.30
2023-04-01T22:12:02.302Z,7.20
2023-04-01T22:15:05.152Z,7.20
2023-04-01T22:17:37.757Z,7.30
2023-04-01T22:20:25.513Z,7.10
2023-04-01T22:23:20.116Z,7.20
2023-04-01T22:25:58.797Z,7.20
2023-04-01T22:28:40.448Z,7.20
2023-04-01T22:31:11.354Z,7.20
2023-04-01T22:33:55.343Z,7.10
2023-04-01T22:36:36.953Z,7.10
2023-04-01T22:39:24.476Z,7.00
2023-04-01T22:42:06.689Z,7.00
2023-04-01T22:45:02.656Z,7.00
2023-04-01T22:50:21.408Z,6.80
2023-04-01T22:52:51.498Z,6.70
2023-04-01T22:55:24.417Z,6.60
2023-04-01T22:57:57.824Z,6.60
2023-04-01T23:00:29.269Z,6.50
2023-04-01T23:03:20.358Z,6.50
2023-04-01T23:05:59.735Z,6.50
2023-04-01T23:08:50.458Z,6.40
2023-04-01T23:11:19.031Z,6.30
2023-04-01T23:13:53.654Z,6.30
2023-04-01T23:16:31.665Z,6.40
2023-04-01T23:19:15.791Z,6.60
2023-04-01T23:21:53.222Z,6.20
2023-04-01T23:24:31.653Z,6.30
2023-04-01T23:27:12.667Z,6.20
2023-04-01T23:29:43.701Z,6.20
2023-04-01T23:32:26.836Z,6.20
2023-04-01T23:34:56.165Z,6.20
2023-04-01T23:37:23.463Z,6.10
2023-04-01T23:39:53.217Z,6.10
2023-04-01T23:42:38.971Z,6.10
2023-04-01T23:45:21.686Z,6.00
2023-04-01T23:47:52.396Z,6.00
2023-04-01T23:50:23.194Z,6.00
2023-04-01T23:53:09.299Z,6.00
2023-04-01T23:58:18.332Z,6.00
